Jepson Prairie Reserve, California Weather observations

Data are for 10 minute period ending at time listed.
 Day   Time   Solar   Ave.   Ave.  Ave.  Vector  Max.   Baro.   Total    
  of    of     Rad.   Air    Rel.  Wind   Wind   Wind  Press.  Precip.   
Year   Day            Temp.  Hum.  Speed  Dir.   Gust                    
2014   (PST)  Kw/m2    F      %     mph   deg.    mph    mb.     in.     
-------------------------------------------------------------------------
 244    7:10   0.22   65.9    73   10.7   228    13.4   1008.1    0.00 
 244    7:20   0.25   67.2    70    9.8   227    12.2   1008.1    0.00 
 244    7:30   0.28   68.7    67    9.5   225    11.6   1008.1    0.00 
 244    7:40   0.32   69.9    64   10.0   226    11.4   1008.1    0.00 
 244    7:50   0.35   71.6    59    9.2   223    11.2   1008.1    0.00 
 244    8:00   0.38   73.0    55    9.4   222    10.8   1008.1    0.00 
 244    8:10   0.41   74.1    53    7.7   219    10.0   1008.1    0.00 
 244    8:20   0.45   75.5    50    3.9   242     7.4   1008.1    0.00 
 244    8:30   0.48   78.1    43    4.9   264     8.2   1008.1    0.00 
 244    8:40   0.51   79.5    39    4.9   265     7.5   1008.1    0.00 
 244    8:50   0.54   80.7    36    4.0   285     8.8   1007.8    0.00 
 244    9:00   0.56   81.5    34    3.0   303     9.9   1007.8    0.00 
 244    9:10   0.59   82.0    32    7.3   329    10.9   1007.8    0.00 
 244    9:20   0.61   82.3    32    8.1   331    14.0   1007.8    0.00 
 244    9:30   0.63   82.5    32    5.7   331     9.1   1007.8    0.00 
 244    9:40   0.66   83.4    31    6.7   332    10.9   1007.8    0.00 
 244    9:50   0.68   83.7    31    7.5   344    11.2   1007.8    0.00 
 244   10:00   0.70   84.3    30    6.2   326    11.3   1007.5    0.00 
 244   10:10   0.72   85.5    29    4.5   331     9.3   1007.5    0.00 
 244   10:20   0.74   86.8    27    5.3   356     9.7   1007.5    0.00 
 244   10:30   0.76   87.8    26    5.2   351    10.4   1007.5    0.00 
 244   10:40   0.77   88.3    25    6.7   342    16.8   1007.5    0.00 
 244   10:50   0.79   89.0    24    7.5   345    13.2   1007.5    0.00 
 244   11:00   0.80   89.4    23   10.6   347    14.8   1007.1    0.00 
 244   11:10   0.81   89.7    22   11.2   350    15.6   1007.1    0.00 
 244   11:20   0.82   90.8    21    9.2   334    15.5   1007.1    0.00 
 244   11:30   0.83   91.0    21    7.1   343    13.7   1007.1    0.00 
 244   11:40   0.83   91.4    22    7.9   339    13.8   1006.8    0.00 
 244   11:50   0.84   92.2    21    5.0     0    10.2   1006.8    0.00 
 244   12:00   0.84   92.9    21    6.2   355    11.7   1006.8    0.00 
 244   12:10   0.84   92.7    21    7.0   338    12.5   1006.8    0.00 
 244   12:20   0.84   93.8    21    4.8     2     8.6   1006.4    0.00 
 244   12:30   0.83   94.1    21    4.0   333     8.0   1006.8    0.00 
 244   12:40   0.84   95.4    20    2.4    16     5.9   1006.4    0.00 
 244   12:50   0.83   96.0    20    3.3   311     7.7   1006.4    0.00 
 244   13:00   0.82   96.6    20    6.5   227    10.9   1006.4    0.00 
 244   13:10   0.81   96.2    21    6.9   235    12.6   1006.4    0.00 
 244   13:20   0.80   96.2    21    7.4   240    13.4   1006.1    0.00 
 244   13:30   0.79   96.3    21    7.0   244    11.5   1006.1    0.00 
 244   13:40   0.78   97.1    21    5.3   206    14.5   1006.1    0.00 
 244   13:50   0.76   96.2    22    6.4   189    11.6   1006.1    0.00 
 244   14:00   0.75   96.3    22   10.0   176    14.4   1005.8    0.00 
 244   14:10   0.73   96.5    22    9.6   189    14.5   1005.8    0.00 
 244   14:20   0.70   97.2    21    8.7   212    13.7   1005.4    0.00 
 244   14:30   0.69   96.9    21   10.8   203    14.8   1005.4    0.00 
 244   14:40   0.66   97.5    21    9.2   205    15.9   1005.4    0.00 
 244   14:50   0.64   97.1    21    8.7   214    14.4   1005.4    0.00 
 244   15:00   0.61   97.1    20    8.4   198    13.6   1005.1    0.00 
 244   15:10   0.58   97.6    20    9.4   210    17.3   1005.1    0.00 
 244   15:20   0.56   97.7    20    8.1   218    12.4   1005.1    0.00 
 244   15:30   0.53   97.8    20    8.3   217    13.8   1005.1    0.00 
 244   15:40   0.49   97.9    20    7.7   208    12.4   1004.7    0.00 
 244   15:50   0.47   97.8    20   10.7   228    16.5   1004.7    0.00 
 244   16:00   0.43   97.6    20   11.6   217    16.6   1004.7    0.00 
 244   16:10   0.41   97.4    20   11.4   226    16.1   1004.7    0.00 
 244   16:20   0.37   97.2    20   13.6   214    17.3   1004.7    0.00 
 244   16:30   0.34   97.0    20   13.8   222    18.2   1004.4    0.00 
 244   16:40   0.31   96.2    22   15.0   227    18.0   1004.4    0.00 
 244   16:50   0.28   95.5    22   15.3   227    20.5   1004.4    0.00 
 244   17:00   0.24   94.6    23   17.3   226    21.4   1004.4    0.00 
 244   17:10   0.21   93.8    23   17.1   224    21.5   1004.1    0.00 
 244   17:20   0.18   93.1    24   16.7   222    21.0   1004.1    0.00 
 244   17:30   0.15   92.2    25   16.4   219    20.3   1004.1    0.00 
 244   17:40   0.12   91.4    26   15.0   220    19.8   1004.1    0.00 
 244   17:50   0.09   90.4    26   14.6   215    20.0   1004.1    0.00 
 244   18:00   0.07   89.1    27   15.3   214    20.0   1003.7    0.00 
 244   18:10   0.05   87.8    28   15.1   214    17.9   1003.7    0.00 
 244   18:20   0.03   86.5    29   16.0   216    19.1   1003.4    0.00 
 244   18:30   0.01   85.2    31   15.5   217    20.2   1003.4    0.00 
 244   18:40   0.00   84.0    32   15.7   214    19.4   1003.4    0.00 
 244   18:50   0.00   83.1    33   16.0   214    19.4   1003.4    0.00 
 244   19:00   0.00   82.3    33   15.6   213    19.8   1003.4    0.00 
 244   19:10   0.00   81.8    33   14.4   214    17.2   1003.4    0.00 
 244   19:20   0.00   81.0    33   14.5   214    18.0   1003.4    0.00 
 244   19:30   0.00   80.2    34   14.9   211    17.8   1003.4    0.00 
 244   19:40   0.00   79.9    35   14.4   209    17.8   1003.7    0.00 
 244   19:50   0.00   79.5    35   14.5   209    17.6   1003.7    0.00 
 244   20:00   0.00   78.7    36   13.9   201    17.0   1003.7    0.00 
 244   20:10   0.00   77.2    41   15.0   202    17.4   1004.1    0.00 
 244   20:20   0.00   77.0    41   15.4   200    18.4   1004.1    0.00 
 244   20:30   0.00   76.7    41   16.1   200    18.8   1004.1    0.00 
 244   20:40   0.00   76.5    43   15.9   200    19.2   1004.4    0.00 
 244   20:50   0.00   75.9    45   16.4   199    19.5   1004.4    0.00 
 244   21:00   0.00   75.2    46   15.8   197    20.0   1004.4    0.00 
 244   21:10   0.00   74.5    48   13.8   194    17.2   1004.4    0.00 
 244   21:20   0.00   73.7    49   14.0   199    17.2   1004.4    0.00 
 244   21:30   0.00   73.2    51   13.9   204    16.7   1004.4    0.00 
 244   21:40   0.00   72.5    53   14.3   202    17.0   1004.4    0.00 
 244   21:50   0.00   71.8    55   12.9   206    16.1   1004.7    0.00 
 244   22:00   0.00   71.0    55   11.1   206    13.6   1004.7    0.00 
 244   22:10   0.00   70.6    56   11.9   205    15.9   1004.7    0.00 
 244   22:20   0.00   71.0    53   13.8   206    16.8   1004.7    0.00 
 244   22:30   0.00   70.6    53   13.3   203    16.1   1004.7    0.00 
 244   22:40   0.00   70.6    53   14.1   206    16.9   1004.7    0.00 
 244   22:50   0.00   70.1    54   13.9   206    17.0   1004.7    0.00 
 244   23:00   0.00   69.3    56   12.7   210    15.9   1004.7    0.00 
 244   23:10   0.00   69.2    55   12.1   212    14.1   1004.7    0.00 
 244   23:20   0.00   68.5    57   10.8   214    12.6   1004.7    0.00 
 244   23:30   0.00   67.3    58   10.4   217    12.4   1004.7    0.00 
 244   23:40   0.00   66.7    58   11.5   215    13.4   1004.7    0.00 
 244   23:50   0.00   66.8    59   12.2   222    14.8   1004.7    0.00 
 245    0:00   0.00   68.4    56   13.8   224    16.8   1004.7    0.00 
 245    0:10   0.00   68.9    56   13.7   224    17.7   1004.7    0.00 
 245    0:20   0.00   68.0    58   13.4   225    17.0   1004.7    0.00 
 245    0:30   0.00   67.9    58   13.8   223    17.4   1004.7    0.00 
 245    0:40   0.00   67.2    61   13.7   223    17.0   1004.7    0.00 
 245    0:50   0.00   66.7    63   15.8   224    21.3   1004.7    0.00 
 245    1:00   0.00   66.4    65   17.7   223    22.6   1004.7    0.00 
 245    1:10   0.00   65.8    67   18.2   220    22.9   1004.4    0.00 
 245    1:20   0.00   65.5    68   18.9   220    23.8   1004.4    0.00 
 245    1:30   0.00   64.9    69   17.6   221    22.1   1004.7    0.00 
 245    1:40   0.00   64.6    71   18.0   220    22.4   1004.4    0.00 
 245    1:50   0.00   64.4    72   18.6   222    23.4   1004.7    0.00 
 245    2:00   0.00   64.0    74   17.3   220    21.5   1004.7    0.00 
 245    2:10   0.00   64.0    74   18.8   222    24.1   1004.7    0.00 
 245    2:20   0.00   63.8    74   19.7   223    23.6   1004.7    0.00 
 245    2:30   0.00   63.6    75   20.4   223    24.0   1004.7    0.00 
 245    2:40   0.00   63.6    76   20.7   225    25.7   1004.7    0.00 
 245    2:50   0.00   63.4    77   21.3   224    24.8   1004.7    0.00 
 245    3:00   0.00   63.2    78   20.9   224    25.9   1004.7    0.00 
 245    3:10   0.00   62.8    79   20.3   227    25.1   1004.7    0.00 
 245    3:20   0.00   62.8    79   20.5   227    25.3   1004.7    0.00 
 245    3:30   0.00   62.7    80   21.2   224    26.7   1004.7    0.00 
 245    3:40   0.00   62.3    81   20.4   225    25.1   1004.7    0.00 
 245    3:50   0.00   62.1    82   20.4   224    26.7   1005.1    0.00 
 245    4:00   0.00   61.9    82   20.7   226    25.8   1005.1    0.00 
 245    4:10   0.00   61.7    83   20.1   225    24.8   1005.1    0.00 
 245    4:20   0.00   61.6    83   20.6   224    25.1   1005.1    0.00 
 245    4:30   0.00   61.6    83   20.9   225    25.4   1005.1    0.00 
 245    4:40   0.00   61.4    83   20.7   226    25.2   1005.1    0.00 
 245    4:50   0.00   61.2    84   21.4   226    25.9   1005.1    0.00 
 245    5:00   0.00   61.0    84   21.4   224    25.9   1005.4    0.00 
 245    5:10   0.00   60.7    85   19.2   225    25.7   1005.4    0.00 
 245    5:20   0.00   60.5    86   17.3   225    21.9   1005.8    0.00 
 245    5:30   0.00   60.3    86   16.5   226    21.2   1005.8    0.00 
 245    5:40   0.00   60.1    86   15.5   227    19.1   1005.8    0.00 
 245    5:50   0.01   60.1    87   15.6   228    20.8   1006.1    0.00 
 245    6:00   0.02   60.1    87   15.5   226    19.6   1006.1    0.00 
 245    6:10   0.05   60.1    87   14.2   224    18.2   1006.1    0.00 
 245    6:20   0.07   60.4    86   14.3   223    17.9   1006.1    0.00 
 245    6:30   0.10   60.7    86   15.2   220    19.1   1006.4    0.00 
 245    6:40   0.13   61.3    84   16.0   220    20.0   1006.4    0.00 
 245    6:50   0.16   62.2    81   16.3   223    20.7   1006.4    0.00 
 245    7:00   0.19   63.0    78   16.5   225    21.1   1006.4    0.00 

Return to Jepson Prairie Reserve graphs page.


Western Regional Climate Center,wrcc@dri.edu